Time;durP1;ratioP1;P1;durP2;ratioP2;P2;SDS_P1;SDS_P2;PMS_P1;PMS_P2;Temp;Humidity;BMP_temperature;BMP_pressure;BME280_temperature;BME280_humidity;BME280_pressure;Samples;Min_cycle;Max_cycle;Signal;HPM_P1;HPM_P2
2023/09/17 04:58:14;;;;;;;47.75;19.83;;;;;;;11.64;70.84;100960.03;4900815;29;20132;-95
2023/09/17 05:01:20;;;;;;;;;;;;;;;11.82;70.55;100981.34;4894111;29;20059;-91
2023/09/17 05:03:57;;;;;;;47.90;18.85;;;;;;;11.53;70.74;100920.91;4881049;29;19928;-94
2023/09/17 05:06:25;;;;;;;34.67;19.08;;;;;;;11.97;70.45;100975.81;4866868;29;20128;-94
2023/09/17 05:08:58;;;;;;;42.80;19.50;;;;;;;11.70;70.09;100920.56;4894151;29;20040;-93
2023/09/17 05:11:27;;;;;;;41.15;20.45;;;;;;;11.70;70.17;100901.38;4858217;29;20036;-96
2023/09/17 05:13:53;;;;;;;39.13;20.45;;;;;;;12.13;70.73;100962.03;4852224;29;20049;-92
2023/09/17 05:16:19;;;;;;;34.13;18.20;;;;;;;12.19;71.19;100963.66;4874633;29;20045;-95
2023/09/17 05:18:49;;;;;;;30.85;15.80;;;;;;;12.09;71.02;100931.63;4868047;29;20068;-94
2023/09/17 05:21:15;;;;;;;40.05;16.52;;;;;;;12.08;70.65;100915.44;4858566;29;20055;-90
2023/09/17 05:23:41;;;;;;;40.08;20.38;;;;;;;12.37;70.21;100956.66;4870597;29;20045;-91
2023/09/17 05:26:08;;;;;;;43.67;27.40;;;;;;;12.31;68.69;100947.66;4871664;29;20177;-92
2023/09/17 05:28:34;;;;;;;43.92;25.67;;;;;;;12.48;68.69;100966.44;4872129;29;20047;-94
2023/09/17 05:31:01;;;;;;;42.80;21.52;;;;;;;12.33;68.23;100926.25;4850688;29;20047;-91
2023/09/17 05:33:27;;;;;;;43.67;21.10;;;;;;;12.57;68.27;100948.28;4873963;29;20087;-86
2023/09/17 05:35:59;;;;;;;40.45;21.25;;;;;;;12.62;68.30;100944.69;4869953;29;20100;-89
2023/09/17 05:38:27;;;;;;;34.88;18.92;;;;;;;12.44;68.06;100911.34;4848641;29;20080;-89
2023/09/17 05:40:53;;;;;;;30.17;17.30;;;;;;;12.68;66.94;100933.41;4882924;29;20052;-88
2023/09/17 05:43:19;;;;;;;32.88;17.25;;;;;;;12.80;67.40;100941.22;4885179;29;20053;-89
2023/09/17 05:45:46;;;;;;;29.17;16.95;;;;;;;12.98;66.94;100958.94;4866294;29;20139;-91
2023/09/17 05:48:15;;;;;;;35.13;17.35;;;;;;;13.07;66.52;100970.91;4874013;29;20049;-92
2023/09/17 05:50:41;;;;;;;31.83;14.32;;;;;;;13.02;65.91;100945.44;4868601;29;20037;-92
2023/09/17 05:53:07;;;;;;;29.13;11.73;;;;;;;13.15;64.73;100969.47;4878192;29;20064;-92
2023/09/17 05:56:01;;;;;;;21.15;11.50;;;;;;;13.25;65.01;100974.91;4893710;29;20053;-93
2023/09/17 05:58:28;;;;;;;29.10;11.80;;;;;;;12.94;64.37;100906.50;4863821;29;20048;-93
2023/09/17 06:04:07;;;;;;;21.67;11.43;;;;;;;13.44;65.02;100939.25;5394396;23;20052;-95
2023/09/17 06:06:34;;;;;;;22.30;10.70;;;;;;;13.39;62.08;100947.56;4888955;29;20056;-90
2023/09/17 06:09:00;;;;;;;14.47;10.23;;;;;;;13.29;62.68;100944.91;4894139;29;20131;-95
2023/09/17 06:11:51;;;;;;;19.85;11.30;;;;;;;13.61;63.22;100967.09;4916276;29;20055;-92
2023/09/17 06:14:17;;;;;;;19.30;10.23;;;;;;;13.45;61.73;100951.06;4885326;29;20048;-96
2023/09/17 06:16:46;;;;;;;16.40;8.90;;;;;;;13.43;61.91;100929.38;4887357;29;20039;-96
2023/09/17 06:19:13;;;;;;;18.42;9.50;;;;;;;13.60;62.29;100948.94;4882030;29;20043;-91
2023/09/17 06:21:39;;;;;;;14.68;8.88;;;;;;;13.56;60.99;100936.09;4877587;29;20048;-94
2023/09/17 06:24:05;;;;;;;18.83;9.45;;;;;;;13.65;60.77;100959.06;4885259;29;20040;-91
2023/09/17 06:26:31;;;;;;;16.75;8.73;;;;;;;13.55;60.48;100939.97;4879541;29;20100;-89
2023/09/17 06:28:58;;;;;;;;;;;;;;;13.86;60.38;100979.69;4900502;29;20036;-92
2023/09/17 06:31:29;;;;;;;18.73;9.20;;;;;;;13.72;60.77;100936.72;4888803;29;19938;-93
2023/09/17 06:33:56;;;;;;;18.55;9.75;;;;;;;13.91;61.08;100958.72;4900897;29;20024;-91
2023/09/17 06:36:22;;;;;;;17.25;9.55;;;;;;;14.08;60.96;100961.81;4913637;29;20055;-90
2023/09/17 06:38:50;;;;;;;14.45;8.05;;;;;;;13.98;59.72;100937.22;4899787;29;20040;-93
2023/09/17 06:41:17;;;;;;;18.15;9.73;;;;;;;14.01;60.03;100928.38;4901141;29;20080;-93
2023/09/17 06:43:46;;;;;;;21.98;10.00;;;;;;;14.28;59.58;100964.28;4932896;29;20048;-91
2023/09/17 06:46:12;;;;;;;14.38;8.18;;;;;;;14.13;59.50;100939.72;4882650;29;20052;-90
2023/09/17 06:48:38;;;;;;;11.57;6.88;;;;;;;14.20;59.06;100944.84;4903756;29;20023;-90
2023/09/17 06:51:13;;;;;;;16.88;8.85;;;;;;;14.20;59.77;100934.66;4900858;29;20040;-90
2023/09/17 06:54:09;;;;;;;13.02;7.68;;;;;;;14.18;59.22;100916.84;4923448;29;20036;-91
2023/09/17 06:56:39;;;;;;;13.50;6.57;;;;;;;14.54;59.66;100950.19;4903763;29;20131;-92
2023/09/17 06:59:11;;;;;;;13.00;7.47;;;;;;;14.70;59.26;100942.47;4897944;29;20044;-89
2023/09/17 07:01:39;;;;;;;;;;;;;;;14.84;58.94;100950.78;4882450;29;20071;-90
2023/09/17 07:04:08;;;;;;;11.40;6.03;;;;;;;14.74;57.47;100943.53;4881255;29;19938;-91
2023/09/17 07:06:34;;;;;;;14.13;5.70;;;;;;;14.61;58.31;100909.31;4913629;29;20036;-90
2023/09/17 07:09:02;;;;;;;11.00;5.55;;;;;;;14.71;57.95;100924.84;4912348;29;20065;-89
2023/09/17 07:11:27;;;;;;;9.70;5.77;;;;;;;14.79;58.38;100922.19;4891880;29;20758;-90
2023/09/17 07:13:55;;;;;;;23.80;6.22;;;;;;;14.82;58.13;100919.97;4903557;29;20051;-95
2023/09/17 07:17:18;;;;;;;16.38;5.95;;;;;;;15.06;58.32;100931.66;4930720;29;20048;-89
2023/09/17 07:20:07;;;;;;;14.50;5.90;;;;;;;15.12;57.72;100938.69;4915603;29;20179;-90
2023/09/17 07:22:48;;;;;;;7.93;5.03;;;;;;;14.85;57.19;100895.41;4917318;29;20103;-89
2023/09/17 07:25:26;;;;;;;8.77;5.47;;;;;;;14.67;57.21;100861.31;4921230;29;20051;-91
2023/09/17 07:27:52;;;;;;;15.23;6.90;;;;;;;14.95;57.91;100894.41;4915105;29;20067;-91
2023/09/17 07:30:20;;;;;;;10.60;6.50;;;;;;;15.01;57.21;100894.00;4880452;29;20044;-91
2023/09/17 07:32:49;;;;;;;11.38;5.60;;;;;;;15.30;57.41;100916.88;4883970;29;20100;-91
2023/09/17 07:35:16;;;;;;;10.88;5.20;;;;;;;15.41;57.63;100912.81;4918404;29;20048;-91
2023/09/17 07:37:42;;;;;;;10.63;5.68;;;;;;;15.22;56.82;100890.84;4889591;29;20051;-89
2023/09/17 07:40:08;;;;;;;15.65;5.68;;;;;;;15.21;56.82;100868.00;4878064;29;20036;-89
2023/09/17 07:42:48;;;;;;;9.43;5.60;;;;;;;15.28;56.11;100867.59;4911044;29;20035;-89
2023/09/17 07:45:17;;;;;;;84.15;8.65;;;;;;;15.47;56.37;100895.88;4903026;29;20052;-90
2023/09/17 07:47:43;;;;;;;20.52;7.65;;;;;;;15.58;56.68;100890.13;4894748;29;20032;-92
2023/09/17 07:50:16;;;;;;;21.63;5.45;;;;;;;15.71;56.41;100892.91;4879890;29;20059;-93
2023/09/17 07:52:51;;;;;;;23.45;5.60;;;;;;;15.83;56.38;100892.38;4862709;29;20111;-90
2023/09/17 07:55:23;;;;;;;12.25;5.10;;;;;;;15.96;55.85;100910.03;4875803;29;20041;-96
2023/09/17 07:57:51;;;;;;;14.23;4.65;;;;;;;15.48;55.03;100849.81;4878836;29;20045;-92
2023/09/17 08:00:17;;;;;;;;;;;;;;;15.88;55.24;100899.72;4871908;29;20060;-93
2023/09/17 08:02:47;;;;;;;7.88;4.80;;;;;;;15.37;55.50;100829.94;4876823;29;19923;-93
2023/09/17 08:05:20;;;;;;;7.95;5.43;;;;;;;15.87;56.43;100892.59;4909965;29;20068;-90
2023/09/17 08:07:49;;;;;;;12.25;6.00;;;;;;;15.79;55.30;100871.22;4900843;29;20043;-93
2023/09/17 08:10:16;;;;;;;;;;;;;;;15.99;55.16;100884.56;4917193;29;20403;-92
2023/09/17 08:12:44;;;;;;;9.75;5.93;;;;;;;16.06;54.41;100882.22;4898984;29;19950;-94
2023/09/17 08:15:13;;;;;;;18.98;10.63;;;;;;;16.07;55.35;100880.25;4892023;29;20034;-94
2023/09/17 08:17:39;;;;;;;18.42;9.65;;;;;;;16.13;55.68;100879.03;4920156;29;20020;-93
2023/09/17 08:20:22;;;;;;;10.35;6.53;;;;;;;15.91;55.53;100838.41;4895863;29;20059;-95
2023/09/17 08:23:13;;;;;;;;;;;;;;;16.23;54.21;100877.97;4881628;29;20055;-94
2023/09/17 09:00:09;;;;;;;15.68;6.90;;;;;;;16.75;52.23;100779.72;4918716;29;20052;-92
2023/09/17 09:03:01;;;;;;;20.10;7.47;;;;;;;16.75;51.97;100773.38;4893381;29;20044;-94
2023/09/17 09:05:27;;;;;;;15.20;6.30;;;;;;;17.08;51.46;100816.06;4900512;29;20040;-93
2023/09/17 09:07:56;;;;;;;16.67;10.20;;;;;;;17.00;51.30;100800.31;4906502;29;20040;-94
2023/09/17 09:10:57;;;;;;;36.05;9.90;;;;;;;17.19;52.76;100821.34;4887538;29;20043;-91
2023/09/17 09:13:58;;;;;;;36.45;9.60;;;;;;;17.18;52.14;100826.03;4926646;29;20052;-89
2023/09/17 09:17:45;;;;;;;19.60;8.73;;;;;;;17.18;52.06;100811.41;4922937;29;20043;-87
2023/09/17 09:21:49;;;;;;;13.05;6.93;;;;;;;17.03;50.89;100779.50;4859734;29;20060;-95
2023/09/17 09:24:38;;;;;;;18.50;6.90;;;;;;;16.99;49.93;100753.66;4863683;29;20045;-92
2023/09/17 09:30:16;;;;;;;13.98;7.15;;;;;;;17.25;49.35;100778.56;5022031;23;20035;-90
2023/09/17 09:32:48;;;;;;;14.73;5.85;;;;;;;17.18;48.19;100770.75;4916088;23;20048;-89
2023/09/17 09:45:45;;;;;;;16.55;6.00;;;;;;;17.52;48.72;100792.13;4895967;29;20089;-89
2023/09/17 09:49:14;;;;;;;20.05;6.10;;;;;;;17.66;48.74;100796.69;4855129;29;20104;-89
2023/09/17 09:51:44;;;;;;;65.05;21.65;;;;;;;17.54;48.70;100781.53;4892129;29;20021;-91
2023/09/17 10:11:48;;;;;;;20.45;6.97;;;;;;;18.13;53.33;100775.53;5110558;23;20107;-84
2023/09/17 10:14:14;;;;;;;21.75;5.72;;;;;;;18.87;49.16;100770.78;4905611;29;20043;-85
2023/09/17 10:17:24;;;;;;;16.85;5.55;;;;;;;18.93;49.10;100767.47;4919240;29;20046;-85
2023/09/17 10:20:05;;;;;;;15.45;8.45;;;;;;;18.66;45.68;100745.75;4903447;29;20571;-87
2023/09/17 10:22:47;;;;;;;10.95;5.25;;;;;;;19.19;48.80;100724.94;4906566;29;20043;-86
2023/09/17 10:25:15;;;;;;;12.52;5.45;;;;;;;19.74;44.33;100737.78;4903286;29;20048;-87
2023/09/17 10:27:55;;;;;;;19.27;5.53;;;;;;;19.57;43.67;100754.50;4906425;29;20040;-87
2023/09/17 10:30:45;;;;;;;13.20;5.45;;;;;;;19.27;46.72;100756.53;4920201;29;20501;-87
2023/09/17 10:33:13;;;;;;;14.13;5.65;;;;;;;19.41;45.16;100719.09;4914522;29;20517;-86
2023/09/17 10:35:40;;;;;;;11.35;6.75;;;;;;;19.52;45.02;100727.00;4927687;29;20036;-85
2023/09/17 10:38:07;;;;;;;17.38;4.80;;;;;;;19.34;44.37;100727.13;4929659;29;20113;-87
2023/09/17 10:40:38;;;;;;;17.52;5.95;;;;;;;19.65;45.79;100732.28;4931390;29;20161;-87
2023/09/17 10:43:07;;;;;;;15.90;5.78;;;;;;;19.85;45.31;100718.72;4922138;29;20044;-85
2023/09/17 10:45:35;;;;;;;32.80;8.95;;;;;;;20.11;43.87;100710.13;4908690;29;20130;-87
2023/09/17 10:48:10;;;;;;;12.73;5.53;;;;;;;19.73;42.93;100666.75;4905479;29;20032;-87
2023/09/17 10:50:38;;;;;;;16.00;5.65;;;;;;;19.73;44.37;100680.63;4905536;29;20048;-86
2023/09/17 10:53:04;;;;;;;38.97;11.25;;;;;;;20.22;43.59;100721.63;4904827;29;20063;-86
2023/09/17 10:55:49;;;;;;;12.88;5.03;;;;;;;19.80;42.43;100680.91;4907181;29;20051;-86
2023/09/17 10:58:20;;;;;;;38.55;6.10;;;;;;;19.94;42.90;100675.06;4886699;29;20122;-86
2023/09/17 11:01:04;;;;;;;;;;;;;;;20.47;42.07;100714.16;4903856;29;20501;-86
2023/09/17 11:03:34;;;;;;;9.35;4.57;;;;;;;20.58;42.79;100701.44;4918683;29;20013;-85
2023/09/17 11:06:16;;;;;;;7.75;4.00;;;;;;;20.78;41.32;100694.16;4901833;29;20040;-87
2023/09/17 11:08:47;;;;;;;13.05;5.38;;;;;;;20.77;42.21;100687.78;4922206;29;20032;-85
2023/09/17 11:11:16;;;;;;;10.63;5.35;;;;;;;20.86;42.34;100702.38;4904755;29;20135;-86
2023/09/17 11:13:46;;;;;;;12.05;4.80;;;;;;;20.86;42.21;100682.06;4922520;29;20032;-86
2023/09/17 11:16:35;;;;;;;8.57;4.70;;;;;;;20.81;42.04;100699.00;4915475;29;20059;-86
2023/09/17 11:19:37;;;;;;;17.25;4.38;;;;;;;20.95;40.76;100698.63;4904328;29;20061;-91
2023/09/17 11:23:15;;;;;;;9.52;4.22;;;;;;;20.68;41.11;100658.47;4928266;29;20075;-91
2023/09/17 11:25:43;;;;;;;12.95;4.07;;;;;;;21.09;40.87;100674.88;4893608;29;20075;-90
2023/09/17 11:28:40;;;;;;;8.48;4.50;;;;;;;20.85;39.10;100639.56;4850955;29;20050;-87
2023/09/17 11:31:09;;;;;;;9.90;4.35;;;;;;;20.93;39.24;100667.63;4838002;29;20054;-90
2023/09/17 11:33:42;;;;;;;11.55;4.53;;;;;;;21.04;39.44;100682.66;4844238;29;20051;-90
2023/09/17 11:36:31;;;;;;;7.05;4.40;;;;;;;20.63;39.72;100640.91;4844540;29;20042;-91
2023/09/17 11:42:19;;;;;;;14.57;5.15;;;;;;;20.97;40.82;100683.25;5412917;23;20052;-89
2023/09/17 11:45:10;;;;;;;8.70;5.38;;;;;;;20.93;41.05;100673.19;4902835;29;20036;-91
2023/09/17 11:47:56;;;;;;;9.55;4.70;;;;;;;20.53;38.73;100621.94;4948322;29;20036;-92
2023/09/17 11:50:26;;;;;;;13.23;5.10;;;;;;;20.72;41.16;100640.75;4935895;29;20040;-90
2023/09/17 11:53:11;;;;;;;9.25;4.63;;;;;;;20.71;38.57;100669.72;4914409;29;20036;-91
2023/09/17 11:56:12;;;;;;;9.38;4.43;;;;;;;20.60;39.20;100660.25;4901618;29;20055;-91
2023/09/17 11:58:44;;;;;;;15.27;4.60;;;;;;;20.38;40.25;100644.78;4938199;29;20131;-91
2023/09/17 12:01:40;;;;;;;11.85;4.25;;;;;;;20.60;41.18;100654.69;4907665;29;20096;-91
2023/09/17 12:04:09;;;;;;;7.75;4.75;;;;;;;20.41;41.23;100621.88;4897925;29;20044;-89
2023/09/17 12:06:57;;;;;;;13.90;4.47;;;;;;;20.98;41.26;100648.72;4882715;29;20031;-89
2023/09/17 12:29:42;;;;;;;31.55;11.35;;;;;;;20.55;41.04;100616.00;4921257;27;20052;-93
2023/09/17 12:33:01;;;;;;;23.50;8.60;;;;;;;20.50;41.62;100607.88;5013720;23;20563;-91
2023/09/17 12:35:46;;;;;;;12.63;7.28;;;;;;;20.15;40.93;100591.69;4918030;23;20052;-92
2023/09/17 12:38:18;;;;;;;19.92;6.20;;;;;;;19.76;41.34;100540.41;4875388;29;20068;-91
2023/09/17 12:41:13;;;;;;;23.83;6.78;;;;;;;20.08;42.50;100581.16;4973992;23;20080;-87
2023/09/17 12:47:20;;;;;;;18.13;6.85;;;;;;;19.74;42.12;100557.41;4861383;29;20562;-90
2023/09/17 12:52:40;;;;;;;17.23;6.30;;;;;;;20.00;42.00;100595.13;5025184;23;20048;-90
2023/09/17 13:10:12;;;;;;;;;;;;;;;19.78;43.86;100568.63;4089439;23;20060;-92
2023/09/17 13:15:35;;;;;;;8.18;6.05;;;;;;;19.88;44.52;100527.34;3907624;23;20052;-89
2023/09/17 13:19:02;;;;;;;15.40;6.30;;;;;;;20.26;44.39;100548.41;4908582;29;20076;-87
2023/09/17 13:21:36;;;;;;;13.43;7.10;;;;;;;20.24;45.10;100519.38;4821928;29;20050;-88
2023/09/17 13:24:03;;;;;;;30.60;11.95;;;;;;;20.42;43.04;100523.50;4834915;29;20050;-92
2023/09/17 13:26:38;;;;;;;109.07;33.40;;;;;;;20.20;42.52;100510.94;4828778;29;20586;-90
2023/09/17 13:30:00;;;;;;;21.60;10.15;;;;;;;20.34;44.56;100541.13;4835377;29;20166;-90
2023/09/17 13:33:01;;;;;;;14.05;7.90;;;;;;;20.43;42.74;100539.03;4841041;29;20093;-90
2023/09/17 13:35:36;;;;;;;19.42;10.65;;;;;;;19.89;42.05;100470.69;4822911;29;20038;-89
2023/09/17 13:38:04;;;;;;;20.35;9.95;;;;;;;19.96;43.88;100486.75;4841095;29;20546;-89
2023/09/17 13:40:51;;;;;;;17.52;8.65;;;;;;;20.33;43.58;100501.44;4826462;29;20128;-90
2023/09/17 13:43:48;;;;;;;39.20;9.65;;;;;;;20.57;42.24;100517.25;4823004;29;20042;-89
2023/09/17 13:46:19;;;;;;;15.38;8.05;;;;;;;20.44;43.18;100525.94;4839883;29;20053;-88
2023/09/17 13:48:45;;;;;;;19.35;8.40;;;;;;;20.23;41.68;100489.97;4841504;29;20042;-87
2023/09/17 13:51:12;;;;;;;21.70;8.60;;;;;;;20.14;41.48;100506.78;4838833;29;20042;-88
2023/09/17 13:53:39;;;;;;;21.55;7.97;;;;;;;19.92;43.59;100514.41;4820180;29;20500;-84
2023/09/17 13:56:05;;;;;;;;;;;;;;;19.83;42.41;100515.66;4842274;29;20037;-88
2023/09/17 13:58:31;;;;;;;19.00;7.65;;;;;;;19.85;44.31;100505.03;4877196;29;19923;-86
2023/09/17 14:00:57;;;;;;;17.87;8.43;;;;;;;19.84;41.94;100512.56;4921574;29;20159;-90
2023/09/17 14:03:31;;;;;;;15.48;8.05;;;;;;;19.37;44.67;100446.38;4900502;23;20107;-89
2023/09/17 14:06:06;;;;;;;19.65;8.98;;;;;;;19.65;42.85;100513.13;4915403;29;20052;-91
2023/09/17 14:08:34;;;;;;;16.58;9.63;;;;;;;19.37;43.09;100460.25;4913414;29;20060;-90
2023/09/17 14:11:18;;;;;;;25.95;9.13;;;;;;;19.35;43.42;100517.19;4911565;29;20062;-89
2023/09/17 14:14:47;;;;;;;20.10;9.57;;;;;;;19.24;44.37;100512.09;4832133;29;20063;-89
2023/09/17 14:17:39;;;;;;;24.13;9.80;;;;;;;19.08;45.25;100499.22;4824634;29;20050;-91
2023/09/17 14:24:06;;;;;;;17.73;8.75;;;;;;;18.72;45.45;100487.63;4919456;24;20430;-91
2023/09/17 14:26:34;;;;;;;21.83;9.38;;;;;;;18.64;46.35;100473.81;4877417;29;20043;-89
2023/09/17 14:29:27;;;;;;;15.80;8.80;;;;;;;18.26;46.35;100433.25;4897787;29;20060;-90
2023/09/17 14:31:53;;;;;;;24.65;9.65;;;;;;;18.32;47.03;100442.97;4878497;29;20118;-89
2023/09/17 14:34:34;;;;;;;20.83;9.60;;;;;;;18.16;47.26;100433.66;5029873;23;20068;-89
2023/09/17 14:37:05;;;;;;;28.00;8.52;;;;;;;18.45;47.61;100486.19;4889836;29;20048;-90
2023/09/17 14:39:47;;;;;;;15.07;8.55;;;;;;;18.12;47.96;100447.34;4891561;29;20139;-89
2023/09/17 14:42:39;;;;;;;29.52;9.43;;;;;;;18.15;48.08;100485.44;4873968;29;20068;-88
2023/09/17 14:45:10;;;;;;;18.40;8.68;;;;;;;17.87;48.65;100445.56;4883315;29;20078;-89
2023/09/17 14:48:41;;;;;;;29.45;10.10;;;;;;;18.07;49.39;100469.69;4891318;29;20100;-89
2023/09/17 14:51:32;;;;;;;29.70;10.27;;;;;;;17.98;49.75;100468.91;4890237;29;20084;-91
2023/09/17 14:54:15;;;;;;;15.38;8.75;;;;;;;17.64;50.48;100420.91;4882425;29;20048;-88
2023/09/17 14:57:41;;;;;;;25.98;10.85;;;;;;;17.81;51.02;100458.75;4874302;29;20184;-88
2023/09/17 15:00:15;;;;;;;22.27;11.48;;;;;;;17.47;51.31;100415.47;4876179;29;20388;-91
2023/09/17 15:06:23;;;;;;;29.10;13.23;;;;;;;17.38;52.55;100430.16;4903778;29;20093;-87
2023/09/17 15:08:49;;;;;;;43.75;12.43;;;;;;;17.05;52.62;100394.03;4895309;29;20128;-90
2023/09/17 15:11:22;;;;;;;34.00;12.38;;;;;;;17.03;53.81;100388.00;4877422;29;20482;-88
2023/09/17 15:13:48;;;;;;;33.03;11.05;;;;;;;17.22;53.84;100372.97;4876677;29;20037;-89
2023/09/17 15:16:15;;;;;;;48.35;11.68;;;;;;;17.38;53.03;100416.34;4872951;29;20062;-88
2023/09/17 15:18:44;;;;;;;31.83;10.97;;;;;;;17.58;53.72;100439.66;4876563;29;20528;-86
2023/09/17 15:21:16;;;;;;;30.77;13.95;;;;;;;17.54;53.24;100424.84;4891387;29;20087;-88
2023/09/17 15:23:43;;;;;;;26.92;13.48;;;;;;;17.54;53.82;100446.97;4860085;29;20140;-87
2023/09/17 15:26:20;;;;;;;34.15;14.13;;;;;;;17.14;54.30;100399.50;4888760;29;20072;-87
2023/09/17 15:29:44;;;;;;;31.73;11.65;;;;;;;17.66;53.21;100435.22;4871521;29;20049;-88
2023/09/17 15:32:49;;;;;;;21.05;10.38;;;;;;;17.52;53.02;100438.22;4874166;29;20073;-88
2023/09/17 15:35:21;;;;;;;25.33;11.23;;;;;;;17.19;53.63;100376.44;4890988;29;20048;-89
2023/09/17 15:38:50;;;;;;;22.33;10.93;;;;;;;17.38;54.44;100432.09;4879784;29;20044;-87
2023/09/17 15:41:17;;;;;;;22.17;11.10;;;;;;;17.04;54.60;100383.28;4891004;29;20044;-89
2023/09/17 15:43:43;;;;;;;22.77;12.27;;;;;;;16.84;54.90;100382.84;4886209;29;20044;-89
2023/09/17 15:50:08;;;;;;;24.40;13.25;;;;;;;16.83;56.23;100427.38;4857513;29;20080;-87
2023/09/17 15:53:00;;;;;;;46.05;13.00;;;;;;;16.64;56.84;100420.22;4861745;23;20080;-90
2023/09/17 15:57:02;;;;;;;;;;;;;;;;;;;;;
2023/09/17 16:00:25;;;;;;;43.15;15.50;;;;;;;16.37;57.88;100412.28;4855199;29;20060;-88
2023/09/17 16:03:29;;;;;;;36.17;15.60;;;;;;;15.84;57.86;100341.69;4848054;29;20053;-90
2023/09/17 16:05:56;;;;;;;46.97;18.80;;;;;;;15.93;58.01;100367.34;4828043;29;20077;-91
2023/09/17 16:08:22;;;;;;;48.15;23.38;;;;;;;15.88;58.65;100370.22;4842732;29;20556;-90
2023/09/17 16:14:24;;;;;;;66.70;31.10;;;;;;;15.60;59.23;100345.69;4827397;29;20070;-92
2023/09/17 16:16:57;;;;;;;53.92;29.23;;;;;;;15.34;59.66;100329.09;4810922;29;20129;-94
2023/09/17 16:19:28;;;;;;;56.80;27.42;;;;;;;15.35;59.70;100329.88;4809983;29;20047;-90
2023/09/17 16:22:45;;;;;;;46.80;23.98;;;;;;;15.72;59.78;100392.75;4805614;29;20068;-88
2023/09/17 16:25:12;;;;;;;46.92;21.73;;;;;;;15.65;60.08;100395.13;4819205;29;20038;-91
2023/09/17 16:27:47;;;;;;;47.92;21.38;;;;;;;15.22;61.04;100318.66;4803940;29;20046;-89
2023/09/17 16:30:33;;;;;;;47.65;20.10;;;;;;;15.56;60.70;100388.78;4817073;29;20652;-88
2023/09/17 16:32:59;;;;;;;41.38;19.42;;;;;;;15.26;61.61;100358.25;4804305;29;20606;-92
2023/09/17 16:36:07;;;;;;;56.72;24.98;;;;;;;15.19;61.72;100354.31;4847718;29;20588;-88
2023/09/17 16:42:35;;;;;;;65.68;31.55;;;;;;;15.25;61.58;100384.13;4853513;29;20077;-88
2023/09/17 16:45:10;;;;;;;66.78;28.38;;;;;;;15.03;61.77;100354.75;4854621;29;20122;-91
2023/09/17 16:51:54;;;;;;;53.38;21.77;;;;;;;14.85;63.08;100341.22;4856168;29;20079;-89
2023/09/17 16:54:36;;;;;;;59.15;20.65;;;;;;;14.77;63.06;100342.78;4860459;29;20041;-91
2023/09/17 16:57:09;;;;;;;44.50;19.23;;;;;;;14.47;63.25;100312.16;4861876;29;20041;-91
2023/09/17 17:02:31;;;;;;;61.75;17.48;;;;;;;14.74;63.84;100365.44;5186118;23;20052;-90
2023/09/17 17:08:26;;;;;;;49.88;20.30;;;;;;;14.48;63.06;100326.72;4881866;29;20793;-91
2023/09/17 17:10:56;;;;;;;49.15;22.63;;;;;;;14.34;63.85;100318.56;4919218;29;20185;-92
2023/09/17 17:13:34;;;;;;;71.05;25.20;;;;;;;14.13;63.48;100282.47;4951607;23;20060;-90
2023/09/17 17:16:32;;;;;;;62.55;24.65;;;;;;;14.63;64.01;100364.06;4891414;29;20055;-90
2023/09/17 17:19:44;;;;;;;65.47;23.75;;;;;;;14.35;64.00;100336.66;4894560;29;20059;-90
2023/09/17 17:22:11;;;;;;;56.63;22.95;;;;;;;14.10;64.06;100297.69;4852941;29;20848;-88
2023/09/17 17:25:32;;;;;;;74.47;23.92;;;;;;;14.46;64.62;100371.03;4894718;29;20044;-88
2023/09/17 17:28:52;;;;;;;51.53;25.08;;;;;;;14.39;64.46;100367.13;4889128;29;20474;-91
2023/09/17 17:31:25;;;;;;;57.78;25.30;;;;;;;14.37;65.01;100370.19;4855183;29;20131;-89
2023/09/17 17:37:02;;;;;;;53.55;21.55;;;;;;;14.01;65.21;100321.53;4872728;29;20520;-88
2023/09/17 17:39:38;;;;;;;60.20;23.25;;;;;;;14.07;65.76;100330.47;4896294;29;20135;-89
2023/09/17 17:42:07;;;;;;;48.65;23.08;;;;;;;13.82;65.90;100293.41;4895948;29;20084;-89
2023/09/17 17:44:40;;;;;;;50.08;20.48;;;;;;;13.88;66.24;100313.34;4875978;29;20041;-90
2023/09/17 17:47:39;;;;;;;60.17;21.20;;;;;;;14.06;66.56;100356.34;4877229;29;20059;-89
2023/09/17 17:50:11;;;;;;;55.95;19.58;;;;;;;13.83;66.74;100331.56;4901982;29;20040;-88
2023/09/17 17:53:40;;;;;;;56.40;21.88;;;;;;;13.92;67.09;100364.63;4897582;29;20036;-88
2023/09/17 17:56:32;;;;;;;54.97;19.95;;;;;;;13.92;67.76;100356.38;4893922;29;20052;-88
2023/09/17 17:59:00;;;;;;;43.33;17.38;;;;;;;13.94;67.62;100362.41;4908169;29;20040;-91
2023/09/17 18:01:56;;;;;;;45.63;16.58;;;;;;;13.92;67.72;100353.63;4859356;29;20052;-90
2023/09/17 18:04:26;;;;;;;52.85;16.35;;;;;;;13.74;67.94;100319.69;4900004;29;20048;-90
2023/09/17 18:07:59;;;;;;;50.63;15.98;;;;;;;13.84;68.15;100341.44;4892210;29;20140;-89
2023/09/17 19:18:06;;;;;;;37.40;14.07;;;;;;;12.87;71.42;100254.78;5019798;23;20044;-95
2023/09/17 19:44:44;;;;;;;32.60;13.27;;;;;;;13.11;72.02;100303.97;5315820;23;20047;31
2023/09/17 19:47:52;;;;;;;24.48;13.40;;;;;;;12.61;72.02;100233.31;4915713;23;19927;-92
2023/09/17 20:01:34;;;;;;;31.27;14.13;;;;;;;13.04;72.42;100300.81;5000521;23;20977;-92
2023/09/17 20:07:48;;;;;;;27.75;13.43;;;;;;;12.64;72.20;100229.16;4916369;23;20062;-92
2023/09/17 22:45:13;;;;;;;25.38;14.32;;;;;;;12.20;75.09;100140.06;4964154;23;20084;-90
2023/09/17 22:47:39;;;;;;;26.70;13.98;;;;;;;12.34;74.94;100162.81;4870199;29;20040;-92
2023/09/17 22:50:06;;;;;;;24.77;14.48;;;;;;;12.49;75.38;100180.13;4909887;23;20493;-92
2023/09/17 22:53:02;;;;;;;25.35;13.63;;;;;;;12.69;74.76;100209.88;4889908;23;20516;-90
2023/09/17 23:28:00;;;;;;;25.75;13.15;;;;;;;12.03;75.77;100121.47;4889436;29;20056;-91
2023/09/17 23:30:51;;;;;;;22.27;12.55;;;;;;;12.54;75.96;100202.75;4870701;24;20139;-92
2023/09/17 23:36:57;;;;;;;23.73;12.43;;;;;;;12.56;75.88;100194.22;4936111;23;20040;-93
2023/09/17 23:39:50;;;;;;;28.90;13.18;;;;;;;12.46;76.11;100190.56;4849607;23;20088;-92
2023/09/17 23:42:41;;;;;;;20.52;12.32;;;;;;;12.42;76.60;100192.28;4863979;29;20077;-91
